createdAt,value
2019-05-21T00:00:08.017Z,98219.86
2019-05-21T00:02:36.429Z,98217.94
2019-05-21T00:05:06.980Z,98213.58
2019-05-21T00:07:35.407Z,98216.11
2019-05-21T00:10:07.714Z,98214.73
2019-05-21T00:12:36.139Z,98209.27
2019-05-21T00:15:05.020Z,98217.49
2019-05-21T00:17:33.435Z,98215.58
2019-05-21T00:20:01.865Z,98212.20
2019-05-21T00:22:30.310Z,98212.65
2019-05-21T00:24:58.774Z,98215.34
2019-05-21T00:27:27.199Z,98217.13
2019-05-21T00:30:32.043Z,98216.27
2019-05-21T00:33:36.772Z,98214.19
2019-05-21T00:36:43.134Z,98210.66
2019-05-21T00:39:47.547Z,98221.16
2019-05-21T00:42:30.688Z,98208.43
2019-05-21T00:44:59.151Z,98210.34
2019-05-21T00:47:27.597Z,98213.62
2019-05-21T00:49:56.091Z,98214.78
2019-05-21T00:52:24.530Z,98210.05
2019-05-21T00:54:52.997Z,98194.77
2019-05-21T00:57:21.438Z,98205.91
2019-05-21T00:59:49.883Z,98208.49
2019-05-21T01:02:18.298Z,98210.95
2019-05-21T01:04:59.685Z,98200.06
2019-05-21T01:07:16.893Z,98201.82
2019-05-21T01:09:45.390Z,98204.84
2019-05-21T01:14:53.980Z,98194.33
2019-05-21T01:17:22.379Z,98198.23
2019-05-21T01:19:50.858Z,98185.69
2019-05-21T01:22:19.283Z,98189.42
2019-05-21T01:24:47.733Z,98186.54
2019-05-21T01:27:16.176Z,98184.91
2019-05-21T01:29:44.615Z,98188.57
2019-05-21T01:32:13.013Z,98186.28
2019-05-21T01:34:41.455Z,98189.81
2019-05-21T01:37:09.863Z,98194.00
2019-05-21T01:39:38.308Z,98190.69
2019-05-21T01:42:06.753Z,98194.45
2019-05-21T01:44:35.158Z,98197.97
2019-05-21T01:47:03.597Z,98192.23
2019-05-21T01:49:32.036Z,98194.88
2019-05-21T01:52:00.422Z,98187.97
2019-05-21T01:54:28.861Z,98198.09
2019-05-21T01:56:57.288Z,98190.83
2019-05-21T01:59:25.715Z,98192.00
2019-05-21T02:01:54.270Z,98194.45
2019-05-21T02:04:22.687Z,98194.23
2019-05-21T02:06:51.274Z,98194.23
2019-05-21T02:09:19.674Z,98192.56
2019-05-21T02:11:48.100Z,98199.25
2019-05-21T02:14:16.530Z,98204.91
2019-05-21T02:16:44.956Z,98201.23
2019-05-21T02:19:13.357Z,98202.34
2019-05-21T02:21:41.792Z,98208.02
2019-05-21T02:24:10.209Z,98203.97
2019-05-21T02:26:38.619Z,98220.16
2019-05-21T02:29:07.088Z,98214.76
2019-05-21T02:31:35.525Z,98223.76
2019-05-21T02:34:04.012Z,98221.55
2019-05-21T02:36:32.486Z,98218.44
2019-05-21T02:39:00.921Z,98225.06
2019-05-21T02:41:29.416Z,98234.14
2019-05-21T02:43:57.821Z,98238.03
2019-05-21T02:46:26.229Z,98239.05
2019-05-21T02:48:54.657Z,98239.61
2019-05-21T02:51:23.122Z,98229.22
2019-05-21T02:53:51.519Z,98226.77
2019-05-21T02:56:20.082Z,98227.63
2019-05-21T02:58:48.500Z,98229.89
2019-05-21T03:01:24.453Z,98232.47
2019-05-21T03:03:52.949Z,98235.88
2019-05-21T03:06:21.378Z,98230.67
2019-05-21T03:08:49.808Z,98233.91
2019-05-21T03:11:18.464Z,98234.69
2019-05-21T03:13:46.903Z,98233.34
2019-05-21T03:16:15.359Z,98234.72
2019-05-21T03:18:43.778Z,98234.72
2019-05-21T03:21:12.206Z,98235.02
2019-05-21T03:23:40.626Z,98234.31
2019-05-21T03:26:09.036Z,98238.41
2019-05-21T03:28:37.450Z,98239.78
2019-05-21T03:31:05.955Z,98237.57
2019-05-21T03:33:34.362Z,98242.90
2019-05-21T03:36:02.768Z,98238.80
2019-05-21T03:38:31.172Z,98237.39
2019-05-21T03:40:59.610Z,98242.19
2019-05-21T03:43:28.010Z,98241.41
2019-05-21T03:45:56.460Z,98243.83
2019-05-21T03:48:24.860Z,98240.23
2019-05-21T03:50:53.279Z,98228.09
2019-05-21T03:53:21.735Z,98228.67
2019-05-21T03:55:50.217Z,98241.49
2019-05-21T03:58:18.633Z,98243.48
2019-05-21T04:00:47.024Z,98244.02
2019-05-21T04:03:15.444Z,98245.45
2019-05-21T04:05:43.884Z,98239.32
2019-05-21T04:08:12.306Z,98246.95
2019-05-21T04:10:40.722Z,98237.84
2019-05-21T04:13:09.622Z,98236.14
2019-05-21T04:15:44.239Z,98228.87
2019-05-21T04:18:25.984Z,98227.59
2019-05-21T04:20:54.672Z,98220.75
2019-05-21T04:23:23.071Z,98231.34
2019-05-21T04:25:51.507Z,98239.00
2019-05-21T04:28:19.930Z,98242.83
2019-05-21T04:30:48.324Z,98247.80
2019-05-21T04:33:16.765Z,98244.20
2019-05-21T04:35:45.196Z,98233.53
2019-05-21T04:38:13.583Z,98237.84
2019-05-21T04:40:42.035Z,98245.77
2019-05-21T04:43:10.431Z,98239.00
2019-05-21T04:45:38.842Z,98238.55
2019-05-21T04:48:07.256Z,98244.72
2019-05-21T04:50:35.700Z,98244.01
2019-05-21T04:53:04.134Z,98250.83
2019-05-21T04:55:32.563Z,98251.34
2019-05-21T04:58:00.979Z,98255.79
2019-05-21T05:00:29.407Z,98257.60
2019-05-21T05:02:57.830Z,98259.73
2019-05-21T05:05:26.243Z,98261.08
2019-05-21T05:07:54.696Z,98257.60
2019-05-21T05:10:23.103Z,98261.36
2019-05-21T05:12:51.529Z,98261.59
2019-05-21T05:15:19.944Z,98260.19
2019-05-21T05:17:48.377Z,98269.17
2019-05-21T05:20:17.640Z,98271.76
2019-05-21T05:22:46.056Z,98296.28
2019-05-21T05:25:14.626Z,98298.24
2019-05-21T05:27:43.038Z,98298.03
2019-05-21T05:30:11.781Z,98305.20
2019-05-21T05:32:40.279Z,98296.28
2019-05-21T05:35:09.071Z,98301.04
2019-05-21T05:37:43.901Z,98299.38
2019-05-21T05:40:08.853Z,98303.58
2019-05-21T05:42:37.309Z,98295.69
2019-05-21T05:45:07.732Z,98307.11
2019-05-21T05:47:36.257Z,98313.38
2019-05-21T05:50:08.820Z,98317.73
2019-05-21T05:52:37.251Z,98318.39
2019-05-21T05:55:09.706Z,98319.17
2019-05-21T05:57:38.132Z,98323.81
2019-05-21T06:00:09.662Z,98319.95
2019-05-21T06:02:38.086Z,98309.84
2019-05-21T06:05:07.060Z,98318.77
2019-05-21T06:07:35.453Z,98308.05
2019-05-21T06:10:05.307Z,98305.96
2019-05-21T06:12:33.903Z,98310.72
2019-05-21T06:15:03.010Z,98313.52
2019-05-21T06:17:31.728Z,98323.45
2019-05-21T06:20:00.181Z,98319.81
2019-05-21T06:22:28.600Z,98316.28
2019-05-21T06:24:57.043Z,98323.27
2019-05-21T06:27:25.450Z,98333.28
2019-05-21T06:29:53.892Z,98335.12
2019-05-21T06:32:22.336Z,98331.20
2019-05-21T06:34:50.728Z,98337.09
2019-05-21T06:37:19.208Z,98333.67
2019-05-21T06:39:47.699Z,98342.50
2019-05-21T06:42:16.109Z,98341.45
2019-05-21T06:44:44.513Z,98345.55
2019-05-21T06:47:12.930Z,98350.20
2019-05-21T06:49:41.347Z,98352.06
2019-05-21T06:52:09.830Z,98353.67
2019-05-21T06:54:38.292Z,98357.53
2019-05-21T06:57:06.708Z,98357.09
2019-05-21T06:59:35.109Z,98355.56
2019-05-21T07:02:03.550Z,98359.55
2019-05-21T07:04:32.037Z,98363.88
2019-05-21T07:07:00.447Z,98364.50
2019-05-21T07:09:28.887Z,98368.94
2019-05-21T07:11:57.315Z,98370.61
2019-05-21T07:14:25.761Z,98370.80
2019-05-21T07:16:54.150Z,98370.16
2019-05-21T07:19:22.635Z,98368.94
2019-05-21T07:21:51.038Z,98368.59
2019-05-21T07:24:19.593Z,98373.14
2019-05-21T07:26:48.016Z,98375.11
2019-05-21T07:29:16.508Z,98377.65
2019-05-21T07:31:44.935Z,98384.57
2019-05-21T07:34:13.451Z,98391.39
2019-05-21T07:36:41.881Z,98394.59
2019-05-21T07:39:10.369Z,98400.02
2019-05-21T07:41:38.993Z,98402.17
2019-05-21T07:44:07.488Z,98406.03
2019-05-21T07:46:39.257Z,98408.95
2019-05-21T07:49:06.067Z,98413.70
2019-05-21T07:51:34.551Z,98406.87
2019-05-21T07:54:02.971Z,98417.27
2019-05-21T07:56:31.424Z,98419.22
2019-05-21T07:58:59.856Z,98421.72
2019-05-21T08:01:28.357Z,98423.73
2019-05-21T08:03:56.792Z,98436.82
2019-05-21T08:06:25.240Z,98439.97
2019-05-21T08:09:11.487Z,98445.92
2019-05-21T08:11:23.833Z,98446.58
2019-05-21T08:13:52.306Z,98441.52
2019-05-21T08:16:20.763Z,98444.41
2019-05-21T08:18:50.364Z,98451.70
2019-05-21T08:21:19.447Z,98442.77
2019-05-21T08:23:48.574Z,98452.16
2019-05-21T08:26:17.048Z,98447.59
2019-05-21T08:28:45.482Z,98457.67
2019-05-21T08:31:13.906Z,98467.72
2019-05-21T08:33:42.348Z,98474.36
2019-05-21T08:36:10.958Z,98465.34
2019-05-21T08:38:39.508Z,98481.89
2019-05-21T08:41:07.925Z,98486.73
2019-05-21T08:43:36.345Z,98490.80
2019-05-21T08:46:05.299Z,98498.44
2019-05-21T08:48:33.724Z,98499.48
2019-05-21T08:51:02.133Z,98503.12
2019-05-21T08:53:30.543Z,98504.73
2019-05-21T08:55:58.957Z,98505.61
2019-05-21T08:58:27.375Z,98504.69
2019-05-21T09:00:55.806Z,98500.34
2019-05-21T09:03:24.237Z,98505.22
2019-05-21T09:05:52.662Z,98508.41
2019-05-21T09:08:21.093Z,98505.69
2019-05-21T09:10:49.505Z,98513.95
2019-05-21T09:13:18.312Z,98499.86
2019-05-21T09:15:46.746Z,98511.06
2019-05-21T09:18:15.189Z,98506.86
2019-05-21T09:20:43.609Z,98511.48
2019-05-21T09:23:12.074Z,98514.87
2019-05-21T09:25:40.745Z,98512.06
2019-05-21T09:28:09.347Z,98517.66
2019-05-21T09:30:37.759Z,98523.86
2019-05-21T09:33:06.163Z,98529.21
2019-05-21T09:35:34.711Z,98526.12
2019-05-21T09:38:03.159Z,98527.36
2019-05-21T09:40:32.213Z,98531.98
2019-05-21T09:43:00.638Z,98536.30
2019-05-21T09:45:29.068Z,98535.18
2019-05-21T09:47:57.465Z,98546.18
2019-05-21T09:50:25.905Z,98546.91
2019-05-21T09:52:54.337Z,98546.45
2019-05-21T09:55:22.793Z,98548.78
2019-05-21T09:57:58.808Z,98551.34
2019-05-21T10:00:36.066Z,98553.09
2019-05-21T10:03:15.079Z,98561.42
2019-05-21T10:05:43.529Z,98551.66
2019-05-21T10:08:11.979Z,98566.77
2019-05-21T10:10:40.441Z,98568.37
2019-05-21T10:13:08.839Z,98564.60
2019-05-21T10:15:37.240Z,98573.06
2019-05-21T10:18:05.769Z,98572.55
2019-05-21T10:20:34.163Z,98579.50
2019-05-21T10:23:02.650Z,98586.66
2019-05-21T10:25:31.055Z,98592.39
2019-05-21T10:27:59.485Z,98600.28
2019-05-21T10:30:27.906Z,98592.53
2019-05-21T10:32:56.320Z,98594.69
2019-05-21T10:35:24.750Z,98587.52
2019-05-21T10:37:55.328Z,98587.42
2019-05-21T10:40:23.593Z,98582.22
2019-05-21T10:42:52.051Z,98584.66
2019-05-21T10:45:20.444Z,98588.09
2019-05-21T10:47:48.897Z,98581.58
2019-05-21T10:50:17.558Z,98585.86
2019-05-21T10:52:45.971Z,98591.71
2019-05-21T10:55:16.108Z,98581.80
2019-05-21T10:57:44.634Z,98592.59
2019-05-21T11:00:22.416Z,98589.04
2019-05-21T11:02:50.423Z,98594.63
2019-05-21T11:05:20.495Z,98593.55
2019-05-21T11:07:48.898Z,98597.45
2019-05-21T11:10:17.471Z,98597.52
2019-05-21T11:12:45.893Z,98601.48
2019-05-21T11:15:14.727Z,98610.03
2019-05-21T11:17:58.952Z,98607.20
2019-05-21T11:20:13.820Z,98611.20
2019-05-21T11:22:42.263Z,98623.95
2019-05-21T11:25:10.997Z,98628.55
2019-05-21T11:27:39.453Z,98622.70
2019-05-21T11:30:09.812Z,98627.88
2019-05-21T11:32:38.423Z,98629.91
2019-05-21T11:35:11.267Z,98631.47
2019-05-21T11:37:40.143Z,98634.48
2019-05-21T11:40:10.771Z,98639.72
2019-05-21T11:42:39.212Z,98649.80
2019-05-21T11:45:09.150Z,98652.72
2019-05-21T11:47:37.564Z,98652.59
2019-05-21T11:50:08.629Z,98650.23
2019-05-21T11:52:37.084Z,98654.46
2019-05-21T11:55:05.957Z,98666.84
2019-05-21T11:57:34.383Z,98674.64
2019-05-21T12:00:03.158Z,98671.17
2019-05-21T12:02:31.582Z,98680.52
2019-05-21T12:04:59.999Z,98677.98
2019-05-21T12:07:28.498Z,98679.41
2019-05-21T12:09:56.926Z,98682.34
2019-05-21T12:12:25.377Z,98684.65
2019-05-21T12:14:53.821Z,98689.45
2019-05-21T12:17:22.253Z,98684.55
2019-05-21T12:19:50.698Z,98689.13
2019-05-21T12:22:19.142Z,98688.43
2019-05-21T12:24:47.551Z,98683.16
2019-05-21T12:27:15.993Z,98683.31
2019-05-21T12:29:44.446Z,98681.66
2019-05-21T12:32:12.937Z,98681.66
2019-05-21T12:34:41.371Z,98684.93
2019-05-21T12:37:09.794Z,98679.53
2019-05-21T12:39:38.214Z,98697.16
2019-05-21T12:42:06.709Z,98698.47
2019-05-21T12:44:35.117Z,98695.52
2019-05-21T12:47:03.615Z,98712.87
2019-05-21T12:49:32.041Z,98709.78
2019-05-21T12:52:00.467Z,98711.75
2019-05-21T12:54:28.890Z,98709.78
2019-05-21T12:56:57.313Z,98721.19
2019-05-21T12:59:25.727Z,98716.97
2019-05-21T13:01:54.167Z,98715.73
2019-05-21T13:04:22.639Z,98716.59
2019-05-21T13:06:51.108Z,98722.68
2019-05-21T13:09:32.204Z,98731.27
2019-05-21T13:11:49.824Z,98733.23
2019-05-21T13:14:19.006Z,98733.55
2019-05-21T13:16:47.678Z,98737.40
2019-05-21T13:19:16.109Z,98735.69
2019-05-21T13:21:44.536Z,98734.41
2019-05-21T13:24:13.033Z,98742.93
2019-05-21T13:26:41.458Z,98747.16
2019-05-21T13:29:09.875Z,98753.61
2019-05-21T13:31:38.283Z,98752.11
2019-05-21T13:34:06.702Z,98747.89
2019-05-21T13:36:35.137Z,98760.57
2019-05-21T13:39:05.220Z,98763.05
2019-05-21T13:41:34.203Z,98764.58
2019-05-21T13:44:02.648Z,98772.43
2019-05-21T13:46:31.061Z,98770.92
2019-05-21T13:48:59.499Z,98773.54
2019-05-21T13:51:27.901Z,98783.72
2019-05-21T13:53:56.348Z,98781.55
2019-05-21T13:56:24.779Z,98784.73
2019-05-21T13:58:53.201Z,98776.52
2019-05-21T14:01:38.839Z,98779.64
2019-05-21T14:03:51.910Z,98780.78
2019-05-21T14:06:20.636Z,98784.18
2019-05-21T14:08:49.033Z,98796.38
2019-05-21T14:11:17.446Z,98788.40
2019-05-21T14:13:46.104Z,98792.62
2019-05-21T14:16:14.559Z,98785.74
2019-05-21T14:18:43.102Z,98793.44
2019-05-21T14:21:11.597Z,98793.70
2019-05-21T14:23:40.006Z,98796.28
2019-05-21T14:26:08.509Z,98803.30
2019-05-21T14:28:36.932Z,98798.23
2019-05-21T14:31:05.431Z,98799.38
2019-05-21T14:33:33.936Z,98801.52
2019-05-21T14:36:02.335Z,98812.24
2019-05-21T14:38:30.858Z,98808.71
2019-05-21T14:40:59.275Z,98813.16
2019-05-21T14:43:27.724Z,98823.16
2019-05-21T14:45:56.192Z,98813.53
2019-05-21T14:48:24.700Z,98812.59
2019-05-21T14:50:53.097Z,98815.93
2019-05-21T14:53:21.532Z,98815.91
2019-05-21T14:55:49.952Z,98822.54
2019-05-21T14:58:18.400Z,98824.91
2019-05-21T15:00:46.795Z,98825.02
2019-05-21T15:03:24.994Z,98823.10
2019-05-21T15:05:45.574Z,98823.78
2019-05-21T15:08:14.033Z,98831.78
2019-05-21T15:10:48.629Z,98833.14
2019-05-21T15:13:12.592Z,98829.73
2019-05-21T15:15:41.015Z,98833.22
2019-05-21T15:18:09.508Z,98833.97
2019-05-21T15:20:39.637Z,98831.16
2019-05-21T15:23:08.079Z,98838.47
2019-05-21T15:25:36.497Z,98835.30
2019-05-21T15:28:05.002Z,98840.77
2019-05-21T15:30:33.410Z,98834.77
2019-05-21T15:33:01.872Z,98844.19
2019-05-21T15:35:30.329Z,98841.96
2019-05-21T15:37:58.794Z,98838.41
2019-05-21T15:40:27.248Z,98841.16
2019-05-21T15:42:55.679Z,98840.42
2019-05-21T15:45:24.223Z,98836.48
2019-05-21T15:47:52.643Z,98839.30
2019-05-21T15:50:21.085Z,98847.17
2019-05-21T15:52:49.512Z,98841.81
2019-05-21T15:55:17.942Z,98840.09
2019-05-21T15:57:46.368Z,98851.31
2019-05-21T16:00:16.671Z,98846.73
2019-05-21T16:02:45.095Z,98851.14
2019-05-21T16:05:13.624Z,98852.55
2019-05-21T16:07:42.056Z,98855.52
2019-05-21T16:10:10.715Z,98862.86
2019-05-21T16:12:39.115Z,98858.52
2019-05-21T16:15:08.683Z,98858.63
2019-05-21T16:17:37.088Z,98863.30
2019-05-21T16:20:09.817Z,98862.30
2019-05-21T16:22:38.266Z,98860.57
2019-05-21T16:25:09.859Z,98866.70
2019-05-21T16:27:38.285Z,98870.55
2019-05-21T16:30:07.752Z,98871.65
2019-05-21T16:32:36.224Z,98861.38
2019-05-21T16:35:09.729Z,98865.70
2019-05-21T16:37:38.274Z,98868.92
2019-05-21T16:40:08.524Z,98871.73
2019-05-21T16:42:36.925Z,98870.61
2019-05-21T16:45:07.465Z,98875.74
2019-05-21T16:47:45.492Z,98870.76
2019-05-21T16:50:07.480Z,98876.81
2019-05-21T16:52:35.912Z,98871.33
2019-05-21T16:55:06.296Z,98874.13
2019-05-21T16:57:34.832Z,98872.77
2019-05-21T17:00:05.085Z,98873.27
2019-05-21T17:02:33.513Z,98878.34
2019-05-21T17:05:02.108Z,98876.05
2019-05-21T17:07:30.531Z,98883.33
2019-05-21T17:09:58.981Z,98875.13
2019-05-21T17:12:27.414Z,98877.84
2019-05-21T17:14:55.851Z,98886.04
2019-05-21T17:17:24.280Z,98876.55
2019-05-21T17:19:52.691Z,98884.49
2019-05-21T17:22:21.106Z,98885.58
2019-05-21T17:24:49.540Z,98890.56
2019-05-21T17:27:17.955Z,98897.07
2019-05-21T17:29:46.394Z,98892.50
2019-05-21T17:32:14.818Z,98896.95
2019-05-21T17:34:43.261Z,98895.96
2019-05-21T17:37:12.691Z,98895.46
2019-05-21T17:39:41.133Z,98893.05
2019-05-21T17:42:15.561Z,98900.36
2019-05-21T17:44:39.693Z,98901.28
2019-05-21T17:47:08.274Z,98900.09
2019-05-21T17:49:36.651Z,98900.36
2019-05-21T17:52:05.109Z,98901.53
2019-05-21T17:54:33.543Z,98907.44
2019-05-21T17:57:01.947Z,98905.58
2019-05-21T17:59:30.386Z,98903.14
2019-05-21T18:02:00.183Z,98913.44
2019-05-21T18:04:29.257Z,98903.11
2019-05-21T18:06:58.069Z,98904.94
2019-05-21T18:09:26.807Z,98908.59
2019-05-21T18:11:55.261Z,98912.53
2019-05-21T18:14:24.785Z,98908.67
2019-05-21T18:16:53.494Z,98908.12
2019-05-21T18:19:22.017Z,98911.01
2019-05-21T18:21:50.932Z,98911.59
2019-05-21T18:24:19.782Z,98916.22
2019-05-21T18:26:48.284Z,98919.70
2019-05-21T18:29:16.699Z,98919.63
2019-05-21T18:31:46.339Z,98921.81
2019-05-21T18:34:15.666Z,98923.55
2019-05-21T18:36:44.322Z,98918.52
2019-05-21T18:39:12.825Z,98933.09
2019-05-21T18:41:41.322Z,98932.86
2019-05-21T18:44:09.746Z,98941.70
2019-05-21T18:46:38.229Z,98944.75
2019-05-21T18:49:06.940Z,98937.63
2019-05-21T18:51:35.437Z,98945.61
2019-05-21T18:54:04.828Z,98941.70
2019-05-21T18:56:33.476Z,98951.76
2019-05-21T18:59:02.230Z,98948.45
2019-05-21T19:01:31.503Z,98948.82
2019-05-21T19:04:00.584Z,98956.63
2019-05-21T19:06:31.375Z,98954.91
2019-05-21T19:08:59.798Z,98949.95
2019-05-21T19:11:28.220Z,98962.54
2019-05-21T19:13:57.308Z,98954.47
2019-05-21T19:16:29.654Z,98956.69
2019-05-21T19:18:55.962Z,98958.69
2019-05-21T19:21:24.446Z,98962.87
2019-05-21T19:23:52.893Z,98972.34
2019-05-21T19:26:21.511Z,98969.14
2019-05-21T19:28:50.100Z,98972.41
2019-05-21T19:31:18.572Z,98970.08
2019-05-21T19:33:47.005Z,98974.70
2019-05-21T19:36:15.580Z,98976.84
2019-05-21T19:38:44.634Z,98975.48
2019-05-21T19:41:13.107Z,98982.59
2019-05-21T19:43:41.535Z,98989.26
2019-05-21T19:46:10.034Z,98992.08
2019-05-21T19:48:39.112Z,98987.87
2019-05-21T19:51:07.786Z,98993.48
2019-05-21T19:53:36.216Z,98997.98
2019-05-21T19:56:05.201Z,99004.86
2019-05-21T19:58:33.851Z,99001.39
2019-05-21T20:01:05.809Z,99000.33
2019-05-21T20:03:34.404Z,98997.83
2019-05-21T20:06:03.417Z,99005.91
2019-05-21T20:08:32.047Z,99012.30
2019-05-21T20:11:00.533Z,99011.55
2019-05-21T20:13:32.505Z,99011.92
2019-05-21T20:16:01.179Z,99014.16
2019-05-21T20:18:29.766Z,99018.55
2019-05-21T20:20:59.270Z,99022.36
2019-05-21T20:23:27.929Z,99018.01
2019-05-21T20:25:57.223Z,99021.86
2019-05-21T20:28:26.083Z,99025.27
2019-05-21T20:30:55.777Z,99022.88
2019-05-21T20:33:24.440Z,99031.63
2019-05-21T20:35:53.615Z,99020.55
2019-05-21T20:38:23.570Z,99023.55
2019-05-21T20:40:53.460Z,99027.98
2019-05-21T20:43:21.882Z,99024.69
2019-05-21T20:45:51.736Z,99030.36
2019-05-21T20:48:22.383Z,99024.84
2019-05-21T20:50:50.874Z,99021.91
2019-05-21T20:53:19.541Z,99024.95
2019-05-21T20:55:48.289Z,99023.20
2019-05-21T20:58:17.073Z,99026.84
2019-05-21T21:00:49.999Z,99022.14
2019-05-21T21:03:18.743Z,99027.29
2019-05-21T21:05:47.454Z,99026.30
2019-05-21T21:08:15.962Z,99025.33
2019-05-21T21:10:44.642Z,99027.38
2019-05-21T21:13:14.346Z,99029.61
2019-05-21T21:15:43.411Z,99024.45
2019-05-21T21:18:12.139Z,99025.39
2019-05-21T21:20:40.723Z,99027.28
2019-05-21T21:23:10.426Z,99031.94
2019-05-21T21:25:38.936Z,99022.95
2019-05-21T21:28:07.391Z,99034.05
2019-05-21T21:30:37.336Z,99025.28
2019-05-21T21:33:07.124Z,99032.65
2019-05-21T21:35:36.545Z,99031.08
2019-05-21T21:38:06.124Z,99040.95
2019-05-21T21:40:35.036Z,99034.16
2019-05-21T21:43:03.466Z,99044.80
2019-05-21T21:45:32.976Z,99039.48
2019-05-21T21:48:01.396Z,99036.33
2019-05-21T21:50:29.887Z,99050.87
2019-05-21T21:52:59.204Z,99052.42
2019-05-21T21:55:27.651Z,99051.61
2019-05-21T21:57:56.159Z,99049.65
2019-05-21T22:00:55.173Z,99053.67
2019-05-21T22:03:26.320Z,99052.44
2019-05-21T22:05:55.282Z,99049.98
2019-05-21T22:08:23.779Z,99048.78
2019-05-21T22:10:52.487Z,99050.84
2019-05-21T22:13:21.066Z,99047.70
2019-05-21T22:15:49.560Z,99060.98
2019-05-21T22:18:18.930Z,99060.12
2019-05-21T22:20:47.921Z,99061.33
2019-05-21T22:23:17.671Z,99058.95
2019-05-21T22:25:46.745Z,99057.16
2019-05-21T22:28:15.361Z,99059.52
2019-05-21T22:30:43.784Z,99052.02
2019-05-21T22:33:12.204Z,99060.84
2019-05-21T22:35:41.104Z,99059.47
2019-05-21T22:38:09.596Z,99046.23
2019-05-21T22:40:38.037Z,99043.43
2019-05-21T22:43:06.458Z,99053.60
2019-05-21T22:45:34.990Z,99056.05
2019-05-21T22:48:03.402Z,99058.28
2019-05-21T22:50:32.979Z,99064.34
2019-05-21T22:53:02.960Z,99065.21
2019-05-21T22:55:32.744Z,99056.98
2019-05-21T22:58:02.284Z,99052.56
2019-05-21T23:00:33.553Z,99050.77
2019-05-21T23:03:03.283Z,99049.42
2019-05-21T23:05:33.244Z,99049.52
2019-05-21T23:08:03.068Z,99053.33
2019-05-21T23:10:32.778Z,99050.82
2019-05-21T23:13:02.314Z,99048.89
2019-05-21T23:15:31.849Z,99053.44
2019-05-21T23:18:01.349Z,99051.11
2019-05-21T23:20:32.025Z,99046.01
2019-05-21T23:23:01.611Z,99049.66
2019-05-21T23:25:30.205Z,99051.73
2019-05-21T23:27:59.205Z,99054.33
2019-05-21T23:30:27.980Z,99050.40
2019-05-21T23:32:56.725Z,99051.41
2019-05-21T23:35:25.339Z,99052.23
2019-05-21T23:37:56.357Z,99053.42
2019-05-21T23:40:26.408Z,99049.33
2019-05-21T23:42:55.070Z,99053.81
2019-05-21T23:45:23.659Z,99042.88
2019-05-21T23:47:52.080Z,99042.88
2019-05-21T23:50:21.253Z,99055.48
2019-05-21T23:52:50.403Z,99054.00
2019-05-21T23:55:18.842Z,99053.72
2019-05-21T23:57:47.480Z,99054.77
